createdAt,value
2018-09-19T00:01:37.045Z,6.43
2018-09-19T00:04:41.035Z,5.80
2018-09-19T00:07:44.569Z,6.20
2018-09-19T00:10:48.204Z,6.30
2018-09-19T00:13:51.734Z,6.23
2018-09-19T00:16:55.944Z,5.57
2018-09-19T00:20:01.387Z,5.57
2018-09-19T00:23:05.008Z,5.27
2018-09-19T00:26:10.256Z,5.70
2018-09-19T00:29:14.109Z,5.87
2018-09-19T00:32:18.847Z,5.90
2018-09-19T00:35:22.696Z,5.47
2018-09-19T00:38:26.664Z,5.10
2018-09-19T00:41:30.373Z,5.63
2018-09-19T00:44:35.771Z,6.40
2018-09-19T00:47:40.611Z,6.10
2018-09-19T00:50:44.206Z,6.60
2018-09-19T00:53:48.686Z,6.87
2018-09-19T00:56:52.197Z,6.83
2018-09-19T00:59:56.105Z,5.47
2018-09-19T01:03:00.598Z,6.40
2018-09-19T01:06:05.375Z,6.43
2018-09-19T01:09:10.020Z,6.53
2018-09-19T01:12:14.136Z,6.43
2018-09-19T01:15:17.952Z,6.30
2018-09-19T01:18:22.074Z,7.30
2018-09-19T01:21:25.838Z,7.17
2018-09-19T01:24:30.117Z,6.60
2018-09-19T01:27:33.823Z,7.63
2018-09-19T01:30:37.709Z,7.30
2018-09-19T01:33:41.435Z,7.47
2018-09-19T01:36:44.903Z,6.90
2018-09-19T01:39:48.802Z,7.40
2018-09-19T01:42:53.067Z,7.10
2018-09-19T01:45:56.719Z,7.60
2018-09-19T01:49:00.441Z,7.20
2018-09-19T01:52:08.657Z,6.97
2018-09-19T01:55:12.569Z,7.63
2018-09-19T01:58:18.186Z,7.57
2018-09-19T02:01:22.826Z,7.97
2018-09-19T02:04:27.028Z,6.67
2018-09-19T02:07:30.640Z,6.77
2018-09-19T02:10:34.813Z,7.40
2018-09-19T02:13:39.030Z,7.07
2018-09-19T02:16:43.449Z,6.43
2018-09-19T02:19:47.800Z,6.10
2018-09-19T02:22:51.661Z,7.03
2018-09-19T02:25:55.156Z,6.80
2018-09-19T02:28:58.891Z,7.20
2018-09-19T02:32:03.070Z,6.50
2018-09-19T02:35:07.127Z,6.27
2018-09-19T02:38:11.692Z,7.37
2018-09-19T02:41:16.811Z,7.10
2018-09-19T02:44:21.731Z,7.33
2018-09-19T02:47:25.740Z,6.90
2018-09-19T02:50:29.470Z,6.40
2018-09-19T02:53:33.382Z,7.67
2018-09-19T02:56:36.771Z,6.40
2018-09-19T02:59:40.395Z,6.93
2018-09-19T03:02:44.457Z,7.13
2018-09-19T03:05:48.835Z,7.43
2018-09-19T03:08:52.449Z,6.83
2018-09-19T03:11:56.298Z,7.07
2018-09-19T03:15:00.312Z,7.43
2018-09-19T03:18:04.349Z,6.80
2018-09-19T03:21:07.959Z,7.60
2018-09-19T03:24:11.865Z,7.27
2018-09-19T03:27:15.747Z,6.97
2018-09-19T03:30:18.887Z,7.30
2018-09-19T03:33:22.080Z,6.90
2018-09-19T03:36:25.155Z,6.87
2018-09-19T03:39:28.334Z,7.60
2018-09-19T03:42:31.431Z,7.97
2018-09-19T03:45:34.613Z,7.50
2018-09-19T03:48:37.676Z,7.73
2018-09-19T03:51:40.820Z,8.73
2018-09-19T03:54:43.911Z,7.30
2018-09-19T03:57:47.326Z,8.07
2018-09-19T04:00:50.431Z,8.70
2018-09-19T04:03:53.534Z,8.23
2018-09-19T04:06:56.621Z,8.53
2018-09-19T04:09:59.779Z,8.67
2018-09-19T04:13:03.403Z,8.53
2018-09-19T04:16:07.379Z,9.03
2018-09-19T04:19:11.542Z,10.47
2018-09-19T04:22:15.650Z,9.33
2018-09-19T04:25:19.006Z,9.17
2018-09-19T04:28:22.259Z,9.33
2018-09-19T04:31:25.387Z,10.37
2018-09-19T04:34:29.217Z,9.73
2018-09-19T04:37:33.197Z,9.57
2018-09-19T04:40:37.310Z,9.93
2018-09-19T04:43:40.470Z,9.67
2018-09-19T04:46:43.566Z,10.00
2018-09-19T04:49:46.839Z,10.70
2018-09-19T04:52:50.272Z,10.40
2018-09-19T04:55:53.462Z,9.97
2018-09-19T04:58:56.807Z,10.93
2018-09-19T05:01:59.949Z,10.03
2018-09-19T05:05:03.039Z,10.17
2018-09-19T05:08:06.428Z,10.13
2018-09-19T05:11:09.560Z,10.90
2018-09-19T05:14:12.698Z,10.73
2018-09-19T05:17:15.794Z,11.07
2018-09-19T05:20:18.894Z,9.73
2018-09-19T05:23:21.978Z,10.73
2018-09-19T05:26:25.143Z,11.50
2018-09-19T05:29:28.302Z,12.07
2018-09-19T05:32:31.392Z,10.70
2018-09-19T05:35:34.465Z,11.50
2018-09-19T05:38:37.547Z,11.43
2018-09-19T05:41:40.662Z,11.70
2018-09-19T05:44:43.739Z,11.70
2018-09-19T05:47:46.822Z,11.60
2018-09-19T05:50:49.902Z,11.40
2018-09-19T05:53:53.039Z,11.57
2018-09-19T05:56:56.174Z,11.07
2018-09-19T05:59:59.244Z,12.67
2018-09-19T06:03:02.348Z,11.53
2018-09-19T06:06:05.762Z,11.73
2018-09-19T06:09:09.950Z,11.47
2018-09-19T06:12:13.042Z,11.47
2018-09-19T06:15:16.147Z,11.93
2018-09-19T06:18:19.234Z,13.30
2018-09-19T06:21:22.315Z,12.77
2018-09-19T06:24:25.386Z,13.50
2018-09-19T06:27:28.525Z,13.47
2018-09-19T06:30:31.639Z,14.53
2018-09-19T06:33:34.794Z,13.07
2018-09-19T06:36:37.928Z,13.00
2018-09-19T06:39:41.007Z,13.03
2018-09-19T06:42:44.102Z,13.43
2018-09-19T06:45:47.236Z,12.43
2018-09-19T06:48:50.275Z,12.20
2018-09-19T06:51:53.402Z,11.63
2018-09-19T06:54:56.496Z,12.60
2018-09-19T06:57:59.620Z,11.13
2018-09-19T07:01:02.723Z,10.57
2018-09-19T07:04:06.002Z,10.47
2018-09-19T07:07:09.143Z,10.87
2018-09-19T07:10:12.219Z,8.83
2018-09-19T07:13:15.299Z,9.27
2018-09-19T07:16:18.377Z,9.27
2018-09-19T07:19:21.459Z,8.80
2018-09-19T07:22:24.539Z,8.67
2018-09-19T07:25:27.646Z,8.40
2018-09-19T07:28:30.760Z,7.97
2018-09-19T07:31:33.869Z,8.60
2018-09-19T07:34:37.012Z,8.23
2018-09-19T07:37:40.147Z,8.07
2018-09-19T07:40:43.207Z,7.40
2018-09-19T07:43:46.299Z,7.10
2018-09-19T07:46:49.432Z,7.07
2018-09-19T07:49:52.995Z,6.33
2018-09-19T07:52:56.143Z,6.97
2018-09-19T07:55:59.204Z,6.67
2018-09-19T07:59:02.299Z,6.07
2018-09-19T08:02:10.799Z,5.40
2018-09-19T08:05:13.885Z,5.60
2018-09-19T08:08:16.988Z,5.53
2018-09-19T08:11:20.051Z,5.50
2018-09-19T08:14:23.148Z,5.57
2018-09-19T08:17:26.218Z,5.33
2018-09-19T08:20:29.295Z,5.37
2018-09-19T08:23:32.382Z,4.93
2018-09-19T08:26:35.762Z,4.73
2018-09-19T08:29:38.950Z,4.70
2018-09-19T08:32:42.063Z,4.53
2018-09-19T08:35:45.172Z,4.33
2018-09-19T08:38:48.383Z,4.53
2018-09-19T08:41:51.491Z,3.80
2018-09-19T08:44:54.596Z,4.17
2018-09-19T08:47:57.789Z,4.23
2018-09-19T08:51:00.878Z,4.00
2018-09-19T08:54:04.098Z,3.97
2018-09-19T08:57:07.421Z,3.57
2018-09-19T09:00:10.943Z,4.00
2018-09-19T09:03:14.070Z,4.00
2018-09-19T09:06:17.252Z,4.07
2018-09-19T09:09:20.366Z,2.90
2018-09-19T09:12:23.525Z,3.70
2018-09-19T09:15:26.917Z,3.07
2018-09-19T09:18:30.219Z,3.20
2018-09-19T09:21:33.470Z,2.90
2018-09-19T09:24:37.066Z,2.93
2018-09-19T09:27:40.388Z,3.07
2018-09-19T09:30:43.643Z,3.00
2018-09-19T09:33:47.373Z,3.27
2018-09-19T09:36:50.906Z,2.97
2018-09-19T09:39:54.748Z,3.13
2018-09-19T09:42:58.175Z,2.83
2018-09-19T09:46:02.074Z,2.83
2018-09-19T09:49:06.174Z,3.00
2018-09-19T09:52:09.888Z,3.03
2018-09-19T09:55:13.524Z,3.00
2018-09-19T09:58:16.854Z,3.50
2018-09-19T10:01:20.195Z,2.60
2018-09-19T10:04:23.800Z,2.90
2018-09-19T10:07:27.031Z,2.77
2018-09-19T10:10:30.488Z,2.53
2018-09-19T10:13:33.966Z,2.67
2018-09-19T10:16:37.656Z,2.30
2018-09-19T10:19:41.138Z,2.40
2018-09-19T10:22:45.393Z,2.53
2018-09-19T10:25:48.923Z,2.23
2018-09-19T10:28:53.114Z,2.53
2018-09-19T10:31:56.847Z,2.50
2018-09-19T10:35:00.001Z,2.60
2018-09-19T10:38:03.604Z,2.47
2018-09-19T10:41:07.033Z,3.10
2018-09-19T10:44:10.633Z,2.53
2018-09-19T10:47:13.910Z,3.10
2018-09-19T10:50:17.386Z,2.77
2018-09-19T10:53:20.804Z,2.70
2018-09-19T10:56:24.784Z,2.70
2018-09-19T10:59:28.151Z,2.63
2018-09-19T11:02:31.812Z,3.00
2018-09-19T11:05:35.375Z,3.20
2018-09-19T11:08:39.397Z,2.50
2018-09-19T11:11:43.199Z,2.30
2018-09-19T11:14:46.506Z,2.70
2018-09-19T11:17:50.425Z,2.57
2018-09-19T11:20:53.939Z,2.50
2018-09-19T11:23:57.296Z,2.73
2018-09-19T11:27:00.562Z,2.47
2018-09-19T11:30:05.074Z,2.57
2018-09-19T11:33:09.453Z,2.50
2018-09-19T11:36:13.133Z,2.63
2018-09-19T11:39:16.767Z,2.57
2018-09-19T11:42:20.868Z,4.03
2018-09-19T11:45:25.184Z,3.77
2018-09-19T11:48:28.751Z,2.97
2018-09-19T11:51:32.515Z,2.70
2018-09-19T11:54:36.300Z,3.00
2018-09-19T11:57:40.767Z,3.47
2018-09-19T12:00:45.091Z,3.17
2018-09-19T12:03:48.906Z,2.83
2018-09-19T12:06:52.333Z,2.70
2018-09-19T12:09:55.874Z,2.52
2018-09-19T12:12:59.443Z,2.33
2018-09-19T12:16:02.730Z,2.37
2018-09-19T12:19:06.630Z,2.90
2018-09-19T12:22:09.964Z,2.67
2018-09-19T12:25:13.461Z,2.90
2018-09-19T12:28:16.904Z,2.77
2018-09-19T12:31:20.570Z,2.30
2018-09-19T12:34:24.325Z,2.65
2018-09-19T12:37:27.672Z,2.83
2018-09-19T12:40:31.037Z,2.15
2018-09-19T12:43:34.244Z,2.80
2018-09-19T12:46:37.673Z,3.17
2018-09-19T12:49:41.597Z,2.90
2018-09-19T12:52:45.323Z,2.90
2018-09-19T12:55:55.678Z,2.72
2018-09-19T12:58:59.471Z,2.30
2018-09-19T13:02:03.945Z,2.70
2018-09-19T13:05:07.658Z,2.40
2018-09-19T13:08:11.512Z,2.93
2018-09-19T13:11:15.198Z,2.90
2018-09-19T13:14:18.892Z,3.52
2018-09-19T13:17:23.092Z,3.22
2018-09-19T13:20:26.309Z,3.37
2018-09-19T13:23:29.949Z,3.55
2018-09-19T13:26:33.310Z,3.30
2018-09-19T13:29:36.822Z,3.17
2018-09-19T13:32:40.244Z,3.22
2018-09-19T13:35:43.591Z,3.50
2018-09-19T13:38:47.066Z,3.80
2018-09-19T13:41:50.652Z,3.50
2018-09-19T13:44:54.119Z,3.80
2018-09-19T13:47:57.324Z,4.15
2018-09-19T13:51:20.618Z,3.58
2018-09-19T13:54:24.339Z,3.37
2018-09-19T13:57:27.665Z,3.25
2018-09-19T14:00:31.996Z,3.65
2018-09-19T14:03:35.708Z,3.15
2018-09-19T14:06:39.240Z,4.00
2018-09-19T14:09:42.855Z,3.52
2018-09-19T14:12:46.689Z,2.90
2018-09-19T14:15:56.969Z,3.22
2018-09-19T14:19:00.178Z,3.22
2018-09-19T14:22:03.382Z,3.77
2018-09-19T14:25:06.944Z,3.17
2018-09-19T14:28:10.593Z,3.20
2018-09-19T14:31:14.253Z,3.25
2018-09-19T14:34:17.881Z,3.50
2018-09-19T14:37:21.141Z,2.92
2018-09-19T14:40:24.648Z,3.83
2018-09-19T14:43:28.203Z,3.80
2018-09-19T14:46:32.201Z,4.03
2018-09-19T14:49:35.684Z,3.67
2018-09-19T14:52:38.904Z,4.12
2018-09-19T14:55:43.032Z,4.15
2018-09-19T14:58:46.626Z,3.87
2018-09-19T15:01:50.213Z,3.90
2018-09-19T15:04:53.843Z,3.98
2018-09-19T15:50:46.811Z,4.75
2018-09-19T15:51:20.256Z,5.40
2018-09-19T15:54:50.825Z,5.40
2018-09-19T15:57:55.666Z,4.90
2018-09-19T16:01:00.466Z,5.50
2018-09-19T16:04:04.924Z,5.70
2018-09-19T16:07:09.305Z,4.20
2018-09-19T16:10:14.203Z,4.77
2018-09-19T16:13:18.752Z,4.53
2018-09-19T16:16:23.156Z,4.73
2018-09-19T16:19:27.736Z,4.10
2018-09-19T16:22:32.920Z,4.20
2018-09-19T16:26:59.099Z,4.70
2018-09-19T16:30:02.208Z,4.37
2018-09-19T16:33:05.328Z,5.67
2018-09-19T16:36:08.376Z,4.75
2018-09-19T16:39:12.564Z,5.03
2018-09-19T16:42:15.803Z,5.07
2018-09-19T16:45:18.906Z,5.37
2018-09-19T16:48:21.925Z,4.00
2018-09-19T16:51:24.964Z,4.17
2018-09-19T16:54:29.096Z,4.50
2018-09-19T16:57:32.178Z,4.97
2018-09-19T17:00:35.259Z,5.07
2018-09-19T17:03:38.302Z,6.07
2018-09-19T17:06:41.374Z,5.40
2018-09-19T17:09:44.417Z,4.73
2018-09-19T17:12:47.447Z,5.53
2018-09-19T17:15:50.567Z,4.57
2018-09-19T17:18:53.647Z,4.73
2018-09-19T17:21:56.983Z,5.13
2018-09-19T17:25:00.090Z,4.73
2018-09-19T17:28:04.715Z,4.80
2018-09-19T17:31:07.964Z,4.73
2018-09-19T17:34:11.108Z,4.47
2018-09-19T17:37:14.239Z,4.87
2018-09-19T17:40:17.290Z,4.70
2018-09-19T17:43:20.546Z,4.10
2018-09-19T17:46:23.660Z,4.53
2018-09-19T17:49:26.695Z,5.23
2018-09-19T17:52:29.744Z,4.90
2018-09-19T17:55:32.968Z,4.37
2018-09-19T17:58:37.260Z,4.43
2018-09-19T18:01:40.335Z,4.60
2018-09-19T18:04:43.368Z,4.47
2018-09-19T18:07:46.532Z,4.00
2018-09-19T18:10:49.689Z,3.80
2018-09-19T18:13:56.465Z,4.20
2018-09-19T18:16:59.788Z,4.20
2018-09-19T18:20:04.533Z,4.70
2018-09-19T18:23:07.667Z,4.60
2018-09-19T18:26:10.779Z,4.27
2018-09-19T18:29:14.101Z,4.17
2018-09-19T18:32:17.220Z,4.23
2018-09-19T18:35:20.380Z,4.07
2018-09-19T18:38:23.423Z,4.47
2018-09-19T18:41:26.571Z,4.20
2018-09-19T18:44:29.735Z,4.43
2018-09-19T18:47:32.892Z,4.30
2018-09-19T18:50:35.935Z,4.00
2018-09-19T18:53:39.019Z,4.43
2018-09-19T18:56:42.071Z,4.73
2018-09-19T18:59:45.167Z,4.80
2018-09-19T19:02:48.220Z,4.30
2018-09-19T19:05:51.247Z,5.83
2018-09-19T19:08:54.291Z,6.93
2018-09-19T19:11:57.394Z,7.63
2018-09-19T19:15:00.944Z,11.70
2018-09-19T19:18:04.059Z,17.50
2018-09-19T19:21:07.131Z,19.17
2018-09-19T19:24:10.215Z,20.80
2018-09-19T19:27:13.278Z,21.37
2018-09-19T19:30:16.384Z,22.93
2018-09-19T19:33:19.436Z,25.03
2018-09-19T19:36:22.467Z,25.53
2018-09-19T19:39:25.504Z,25.37
2018-09-19T19:42:28.555Z,26.50
2018-09-19T19:45:31.724Z,27.00
2018-09-19T19:48:34.825Z,25.60
2018-09-19T19:51:37.860Z,28.13
2018-09-19T19:54:40.893Z,30.50
2018-09-19T19:57:44.008Z,27.77
2018-09-19T20:00:47.056Z,27.50
2018-09-19T20:03:50.148Z,25.60
2018-09-19T20:06:53.327Z,26.03
2018-09-19T20:09:56.383Z,25.97
2018-09-19T20:12:59.503Z,25.33
2018-09-19T20:16:02.565Z,25.37
2018-09-19T20:19:07.676Z,23.70
2018-09-19T20:22:11.263Z,22.23
2018-09-19T20:25:14.341Z,20.90
2018-09-19T20:28:17.396Z,21.67
2018-09-19T20:31:20.447Z,19.80
2018-09-19T20:34:23.488Z,18.00
2018-09-19T20:37:26.529Z,18.97
2018-09-19T20:40:29.566Z,18.40
2018-09-19T20:43:32.790Z,18.17
2018-09-19T20:46:35.865Z,18.87
2018-09-19T20:49:38.920Z,18.23
2018-09-19T20:52:42.000Z,15.93
2018-09-19T20:55:45.063Z,17.50
2018-09-19T20:58:48.157Z,15.90
2018-09-19T21:01:51.250Z,16.13
2018-09-19T21:04:54.321Z,14.87
2018-09-19T21:07:57.663Z,13.87
2018-09-19T21:11:00.860Z,14.43
2018-09-19T21:14:04.059Z,14.30
2018-09-19T21:17:07.105Z,14.43
2018-09-19T21:20:10.339Z,14.30
2018-09-19T21:23:13.560Z,13.67
2018-09-19T21:26:16.701Z,13.47
2018-09-19T21:29:19.830Z,13.43
2018-09-19T21:32:23.005Z,13.10
2018-09-19T21:35:27.012Z,12.03
2018-09-19T21:38:30.064Z,11.93
2018-09-19T21:41:33.139Z,11.97
2018-09-19T21:44:36.183Z,11.87
2018-09-19T21:47:39.216Z,11.40
2018-09-19T21:50:42.559Z,10.80
2018-09-19T21:53:45.597Z,10.83
2018-09-19T21:56:48.627Z,11.80
2018-09-19T21:59:53.484Z,9.78
2018-09-19T22:02:56.734Z,10.30
2018-09-19T22:05:59.807Z,9.73
2018-09-19T22:09:02.999Z,9.47
2018-09-19T22:12:09.530Z,10.03
2018-09-19T22:15:12.568Z,10.67
2018-09-19T22:18:15.607Z,10.63
2018-09-19T22:21:18.734Z,10.57
2018-09-19T22:24:21.843Z,10.90
2018-09-19T22:27:25.022Z,11.00
2018-09-19T22:30:28.007Z,11.00
2018-09-19T22:33:31.148Z,11.03
2018-09-19T22:36:34.208Z,10.68
2018-09-19T22:39:37.247Z,11.03
2018-09-19T22:42:40.371Z,10.40
2018-09-19T22:45:43.407Z,10.83
2018-09-19T22:48:46.819Z,10.90
2018-09-19T22:51:49.891Z,11.10
2018-09-19T22:54:52.928Z,11.63
2018-09-19T22:57:55.996Z,11.33
2018-09-19T23:00:59.647Z,10.33
2018-09-19T23:04:02.688Z,11.00
2018-09-19T23:07:05.751Z,10.37
2018-09-19T23:10:08.785Z,10.10
2018-09-19T23:13:11.919Z,9.10
2018-09-19T23:16:15.021Z,10.83
2018-09-19T23:19:18.127Z,10.03
2018-09-19T23:22:22.311Z,9.07
2018-09-19T23:25:25.335Z,8.27
2018-09-19T23:28:28.375Z,7.87
2018-09-19T23:31:31.427Z,8.20
2018-09-19T23:34:34.622Z,8.03
2018-09-19T23:37:37.654Z,7.03
2018-09-19T23:40:40.692Z,6.83
2018-09-19T23:43:43.832Z,8.00
2018-09-19T23:46:46.851Z,7.87
2018-09-19T23:49:49.895Z,7.27
2018-09-19T23:52:52.931Z,7.83
2018-09-19T23:55:55.992Z,7.43
2018-09-19T23:58:59.030Z,6.37
